createdAt,value
2018-06-13T00:00:03.794Z,119
2018-06-13T00:05:03.792Z,119
2018-06-13T00:10:03.799Z,119
2018-06-13T00:15:03.802Z,119
2018-06-13T00:20:03.803Z,119
2018-06-13T00:25:03.806Z,119
2018-06-13T00:30:03.807Z,119
2018-06-13T00:35:03.806Z,119
2018-06-13T00:40:03.815Z,119
2018-06-13T00:45:03.818Z,119
2018-06-13T00:50:03.818Z,119
2018-06-13T00:55:03.822Z,119
2018-06-13T01:00:03.830Z,119
2018-06-13T01:05:03.832Z,119
2018-06-13T01:10:03.833Z,119
2018-06-13T01:15:03.832Z,119
2018-06-13T01:20:03.830Z,119
2018-06-13T01:25:03.845Z,119
2018-06-13T01:30:03.840Z,119
2018-06-13T01:35:03.838Z,119
2018-06-13T01:40:03.845Z,119
2018-06-13T01:45:03.844Z,119
2018-06-13T01:50:03.846Z,119
2018-06-13T01:55:03.867Z,119
2018-06-13T02:00:03.855Z,119
2018-06-13T02:05:03.857Z,119
2018-06-13T02:10:03.873Z,119
2018-06-13T02:15:03.858Z,119
2018-06-13T02:20:03.868Z,119
2018-06-13T02:25:03.880Z,119
2018-06-13T02:30:03.883Z,119
2018-06-13T02:35:03.871Z,119
2018-06-13T02:40:03.881Z,119
2018-06-13T02:45:03.894Z,119
2018-06-13T02:50:03.891Z,119
2018-06-13T02:55:03.897Z,119
2018-06-13T03:00:03.932Z,119
2018-06-13T03:05:03.894Z,119
2018-06-13T03:10:03.908Z,119
2018-06-13T03:15:03.897Z,119
2018-06-13T03:20:03.894Z,119
2018-06-13T03:25:03.918Z,119
2018-06-13T03:30:03.907Z,119
2018-06-13T03:35:03.904Z,119
2018-06-13T03:40:03.919Z,119
2018-06-13T03:45:03.909Z,119
2018-06-13T03:50:03.912Z,119
2018-06-13T03:55:03.931Z,119
2018-06-13T04:00:03.923Z,119
2018-06-13T04:05:03.934Z,119
2018-06-13T04:10:03.939Z,119
2018-06-13T04:15:03.928Z,119
2018-06-13T04:20:03.929Z,119
2018-06-13T04:25:03.948Z,119
2018-06-13T04:30:03.931Z,119
2018-06-13T04:35:03.941Z,119
2018-06-13T04:40:03.949Z,119
2018-06-13T04:45:03.941Z,119
2018-06-13T04:50:03.947Z,119
2018-06-13T04:55:03.954Z,119
2018-06-13T05:00:03.956Z,119
2018-06-13T05:05:03.956Z,119
2018-06-13T05:10:03.976Z,119
2018-06-13T05:15:03.963Z,119
2018-06-13T05:20:03.959Z,119
2018-06-13T05:25:03.966Z,119
2018-06-13T05:30:03.969Z,119
2018-06-13T05:35:03.966Z,119
2018-06-13T05:40:03.971Z,119
2018-06-13T05:45:03.983Z,119
2018-06-13T05:50:03.973Z,119
2018-06-13T05:55:03.992Z,119
2018-06-13T06:00:04.011Z,119
2018-06-13T06:05:03.988Z,119
2018-06-13T06:10:03.986Z,119
2018-06-13T06:15:03.995Z,119
2018-06-13T06:20:03.987Z,119
2018-06-13T06:25:03.994Z,119
2018-06-13T06:30:04.004Z,119
2018-06-13T06:35:04.001Z,119
2018-06-13T06:40:04.001Z,119
2018-06-13T06:45:04.002Z,119
2018-06-13T06:50:04.015Z,119
2018-06-13T06:55:04.010Z,119
2018-06-13T07:00:04.025Z,119
2018-06-13T07:05:04.014Z,119
2018-06-13T07:10:04.019Z,119
2018-06-13T07:15:04.027Z,119
2018-06-13T07:20:04.033Z,119
2018-06-13T07:25:04.039Z,119
2018-06-13T07:30:04.034Z,119
2018-06-13T07:35:04.038Z,119
2018-06-13T07:40:04.039Z,119
2018-06-13T07:45:04.051Z,119
2018-06-13T07:50:04.043Z,119
2018-06-13T07:55:04.046Z,119
2018-06-13T08:00:04.066Z,119
2018-06-13T08:05:04.052Z,119
2018-06-13T08:10:04.056Z,119
2018-06-13T08:15:04.059Z,119
2018-06-13T08:20:04.064Z,119
2018-06-13T08:25:04.061Z,119
2018-06-13T08:30:04.068Z,119
2018-06-13T08:35:04.067Z,119
2018-06-13T08:40:04.070Z,119
2018-06-13T08:45:04.080Z,119
2018-06-13T08:50:04.072Z,119
2018-06-13T08:55:04.074Z,119
2018-06-13T09:00:04.083Z,119
2018-06-13T09:05:04.085Z,119
2018-06-13T09:10:04.093Z,119
2018-06-13T09:15:04.241Z,119
2018-06-13T09:20:04.091Z,119
2018-06-13T09:25:04.093Z,119
2018-06-13T09:30:04.094Z,119
2018-06-13T09:35:04.100Z,119
2018-06-13T09:40:04.113Z,119
2018-06-13T09:45:04.107Z,119
2018-06-13T09:50:04.150Z,119
2018-06-13T09:55:04.119Z,119
2018-06-13T10:00:04.212Z,119
2018-06-13T10:05:04.110Z,119
2018-06-13T10:10:04.119Z,119
2018-06-13T10:15:04.128Z,119
2018-06-13T10:20:04.118Z,119
2018-06-13T10:25:04.127Z,119
2018-06-13T10:30:04.125Z,119
2018-06-13T10:35:04.127Z,119
2018-06-13T10:40:04.133Z,119
2018-06-13T10:45:04.135Z,119
2018-06-13T10:50:04.137Z,119
2018-06-13T10:55:04.141Z,119
2018-06-13T11:00:04.141Z,119
2018-06-13T11:05:04.146Z,119
2018-06-13T11:10:04.155Z,119
2018-06-13T11:15:04.154Z,119
2018-06-13T11:20:04.159Z,119
2018-06-13T11:25:04.203Z,119
2018-06-13T11:30:04.156Z,119
2018-06-13T11:35:04.171Z,119
2018-06-13T11:40:04.166Z,119
2018-06-13T11:45:04.161Z,119
2018-06-13T11:50:04.168Z,119
2018-06-13T11:55:04.172Z,119
2018-06-13T12:00:04.179Z,119
2018-06-13T12:05:04.173Z,119
2018-06-13T12:10:04.178Z,119
2018-06-13T12:15:04.193Z,119
2018-06-13T12:20:04.182Z,119
2018-06-13T12:25:04.188Z,119
2018-06-13T12:30:04.203Z,117.46
2018-06-13T12:35:04.196Z,106.64
2018-06-13T12:40:04.204Z,96.94
2018-06-13T12:45:04.202Z,92.03
2018-06-13T12:50:04.200Z,89.96
2018-06-13T12:55:04.207Z,92.03
2018-06-13T13:00:04.208Z,95.05
2018-06-13T13:05:04.224Z,103.36
2018-06-13T13:10:04.378Z,116.04
2018-06-13T13:15:04.222Z,119
2018-06-13T13:20:04.289Z,119
2018-06-13T13:25:04.232Z,119
2018-06-13T13:30:04.327Z,119
2018-06-13T13:35:04.230Z,119
2018-06-13T13:40:04.233Z,115.01
2018-06-13T13:45:04.237Z,115.63
2018-06-13T13:50:04.231Z,119
2018-06-13T13:55:04.235Z,119
2018-06-13T14:00:04.235Z,119
2018-06-13T14:05:04.247Z,119
2018-06-13T14:10:04.253Z,119
2018-06-13T14:15:04.248Z,119
2018-06-13T14:20:04.248Z,119
2018-06-13T14:25:04.254Z,119
2018-06-13T14:30:04.260Z,119
2018-06-13T14:35:04.260Z,119
2018-06-13T14:40:04.263Z,119
2018-06-13T14:45:04.367Z,119
2018-06-13T14:50:04.261Z,119
2018-06-13T14:55:04.272Z,119
2018-06-13T15:00:04.267Z,119
2018-06-13T15:05:04.269Z,119
2018-06-13T15:10:04.273Z,118.68
2018-06-13T15:15:04.277Z,117.78
2018-06-13T15:20:04.293Z,110.12
2018-06-13T15:25:04.280Z,109.38
2018-06-13T15:28:57.723Z,111.53
2018-06-13T15:30:03.408Z,112.73
2018-06-13T15:35:03.424Z,118.8
2018-06-13T15:40:03.422Z,119
2018-06-13T15:45:03.436Z,119
2018-06-13T15:50:03.558Z,119
2018-06-13T15:55:03.430Z,119
2018-06-13T16:00:03.458Z,119
2018-06-13T16:05:03.428Z,119
2018-06-13T16:10:03.433Z,119
2018-06-13T16:15:03.435Z,119
2018-06-13T16:20:03.504Z,119
2018-06-13T16:25:03.440Z,119
2018-06-13T16:30:03.445Z,119
2018-06-13T16:35:03.447Z,119
2018-06-13T16:40:03.448Z,119
2018-06-13T16:45:03.458Z,119
2018-06-13T16:50:03.656Z,119
2018-06-13T16:55:03.455Z,119
2018-06-13T17:00:03.526Z,119
2018-06-13T17:05:03.532Z,119
2018-06-13T17:10:03.533Z,119
2018-06-13T17:15:03.538Z,119
2018-06-13T17:20:03.540Z,119
2018-06-13T17:25:03.535Z,119
2018-06-13T17:30:03.548Z,119
2018-06-13T17:35:03.547Z,119
2018-06-13T17:40:03.559Z,119
2018-06-13T17:45:03.627Z,119
2018-06-13T17:50:03.552Z,119
2018-06-13T17:55:03.558Z,119
2018-06-13T18:00:03.557Z,119
2018-06-13T18:05:03.559Z,119
2018-06-13T18:10:03.563Z,119
2018-06-13T18:15:03.576Z,119
2018-06-13T18:20:03.651Z,119
2018-06-13T18:25:03.567Z,119
2018-06-13T18:30:03.573Z,119
2018-06-13T18:35:03.579Z,119
2018-06-13T18:40:03.587Z,119
2018-06-13T18:45:03.589Z,119
2018-06-13T18:50:03.582Z,119
2018-06-13T18:55:03.590Z,119
2018-06-13T19:00:03.592Z,119
2018-06-13T19:05:03.597Z,119
2018-06-13T19:10:03.595Z,119
2018-06-13T19:15:03.599Z,119
2018-06-13T19:20:03.603Z,119
2018-06-13T19:25:03.601Z,119
2018-06-13T19:30:03.608Z,119
2018-06-13T19:35:03.607Z,119
2018-06-13T19:40:03.604Z,119
2018-06-13T19:45:03.620Z,119
2018-06-13T19:50:03.611Z,119
2018-06-13T19:55:03.619Z,119
2018-06-13T20:00:03.636Z,119
2018-06-13T20:05:03.625Z,119
2018-06-13T20:10:03.622Z,119
2018-06-13T20:15:03.647Z,119
2018-06-13T20:20:03.631Z,119
2018-06-13T20:25:03.852Z,119
2018-06-13T20:30:03.647Z,119
2018-06-13T20:35:03.634Z,119
2018-06-13T20:40:03.650Z,119
2018-06-13T20:45:03.771Z,119
2018-06-13T20:50:03.647Z,119
2018-06-13T20:55:03.644Z,119
2018-06-13T21:00:03.669Z,119
2018-06-13T21:05:03.648Z,119
2018-06-13T21:10:03.654Z,119
2018-06-13T21:15:03.661Z,119
2018-06-13T21:20:03.657Z,119
2018-06-13T21:25:03.670Z,119
2018-06-13T21:30:03.674Z,119
2018-06-13T21:35:03.816Z,119
2018-06-13T21:40:03.675Z,119
2018-06-13T21:45:03.696Z,119
2018-06-13T21:50:03.690Z,119
2018-06-13T21:55:03.694Z,119
2018-06-13T22:00:03.696Z,119
2018-06-13T22:05:03.686Z,119
2018-06-13T22:10:03.698Z,119
2018-06-13T22:15:03.708Z,119
2018-06-13T22:20:03.711Z,119
2018-06-13T22:25:03.705Z,119
2018-06-13T22:30:03.758Z,119
2018-06-13T22:35:03.700Z,119
2018-06-13T22:40:03.701Z,119
2018-06-13T22:45:03.712Z,119
2018-06-13T22:50:03.715Z,119
2018-06-13T22:55:03.708Z,119
2018-06-13T23:00:03.716Z,119
2018-06-13T23:05:03.726Z,119
2018-06-13T23:10:03.717Z,119
2018-06-13T23:15:03.717Z,119
2018-06-13T23:20:03.740Z,119
2018-06-13T23:25:03.739Z,119
2018-06-13T23:30:03.731Z,119
2018-06-13T23:35:03.736Z,119
2018-06-13T23:40:03.740Z,119
2018-06-13T23:45:03.734Z,119
2018-06-13T23:50:03.749Z,119
2018-06-13T23:55:03.738Z,119
